sensor_id;sensor_type;location;lat;lon;timestamp;P1;durP1;ratioP1;P2;durP2;ratioP2
13487;SDS011;6816;48.506;9.050;2023-02-26T00:00:18;1.47;;;0.90;;
13487;SDS011;6816;48.506;9.050;2023-02-26T00:03:20;2.07;;;1.17;;
13487;SDS011;6816;48.506;9.050;2023-02-26T00:06:21;1.70;;;0.87;;
13487;SDS011;6816;48.506;9.050;2023-02-26T00:09:22;1.83;;;0.70;;
13487;SDS011;6816;48.506;9.050;2023-02-26T00:12:23;1.37;;;0.97;;
13487;SDS011;6816;48.506;9.050;2023-02-26T00:15:24;1.70;;;0.87;;
13487;SDS011;6816;48.506;9.050;2023-02-26T00:18:25;1.00;;;0.73;;
13487;SDS011;6816;48.506;9.050;2023-02-26T00:21:27;1.80;;;1.00;;
13487;SDS011;6816;48.506;9.050;2023-02-26T00:24:28;1.40;;;0.80;;
13487;SDS011;6816;48.506;9.050;2023-02-26T00:27:29;1.10;;;0.87;;
13487;SDS011;6816;48.506;9.050;2023-02-26T00:30:30;2.83;;;0.90;;
13487;SDS011;6816;48.506;9.050;2023-02-26T00:33:31;0.70;;;0.60;;
13487;SDS011;6816;48.506;9.050;2023-02-26T00:36:41;1.83;;;1.00;;
13487;SDS011;6816;48.506;9.050;2023-02-26T00:43:13;2.37;;;1.20;;
13487;SDS011;6816;48.506;9.050;2023-02-26T00:46:19;1.17;;;0.80;;
13487;SDS011;6816;48.506;9.050;2023-02-26T00:52:45;1.03;;;0.80;;
13487;SDS011;6816;48.506;9.050;2023-02-26T00:56:00;1.20;;;0.73;;
13487;SDS011;6816;48.506;9.050;2023-02-26T00:59:00;1.27;;;1.10;;
13487;SDS011;6816;48.506;9.050;2023-02-26T01:02:01;1.30;;;0.80;;
13487;SDS011;6816;48.506;9.050;2023-02-26T01:05:02;1.60;;;0.90;;
13487;SDS011;6816;48.506;9.050;2023-02-26T01:08:14;1.57;;;1.10;;
13487;SDS011;6816;48.506;9.050;2023-02-26T01:11:35;1.60;;;1.20;;
13487;SDS011;6816;48.506;9.050;2023-02-26T01:14:36;2.73;;;1.33;;
13487;SDS011;6816;48.506;9.050;2023-02-26T01:17:53;2.03;;;1.07;;
13487;SDS011;6816;48.506;9.050;2023-02-26T01:21:04;2.50;;;1.13;;
13487;SDS011;6816;48.506;9.050;2023-02-26T01:24:13;2.77;;;1.10;;
13487;SDS011;6816;48.506;9.050;2023-02-26T01:27:16;1.77;;;1.00;;
13487;SDS011;6816;48.506;9.050;2023-02-26T01:30:17;2.17;;;1.10;;
13487;SDS011;6816;48.506;9.050;2023-02-26T01:33:34;2.10;;;1.20;;
13487;SDS011;6816;48.506;9.050;2023-02-26T01:40:47;2.33;;;0.93;;
13487;SDS011;6816;48.506;9.050;2023-02-26T01:47:35;1.80;;;1.10;;
13487;SDS011;6816;48.506;9.050;2023-02-26T01:50:44;2.90;;;1.13;;
13487;SDS011;6816;48.506;9.050;2023-02-26T01:53:44;1.40;;;1.00;;
13487;SDS011;6816;48.506;9.050;2023-02-26T01:56:46;2.60;;;1.27;;
13487;SDS011;6816;48.506;9.050;2023-02-26T01:59:51;1.80;;;1.00;;
13487;SDS011;6816;48.506;9.050;2023-02-26T02:02:53;2.23;;;1.20;;
13487;SDS011;6816;48.506;9.050;2023-02-26T02:05:56;3.03;;;1.77;;
13487;SDS011;6816;48.506;9.050;2023-02-26T02:09:01;2.37;;;1.27;;
13487;SDS011;6816;48.506;9.050;2023-02-26T02:15:19;1.53;;;1.07;;
13487;SDS011;6816;48.506;9.050;2023-02-26T02:34:46;1.93;;;1.30;;
13487;SDS011;6816;48.506;9.050;2023-02-26T02:38:10;1.47;;;1.00;;
13487;SDS011;6816;48.506;9.050;2023-02-26T02:41:22;1.40;;;1.00;;
13487;SDS011;6816;48.506;9.050;2023-02-26T02:44:28;2.07;;;1.40;;
13487;SDS011;6816;48.506;9.050;2023-02-26T02:47:34;3.53;;;1.20;;
13487;SDS011;6816;48.506;9.050;2023-02-26T02:50:40;3.30;;;1.50;;
13487;SDS011;6816;48.506;9.050;2023-02-26T02:53:49;2.73;;;1.50;;
13487;SDS011;6816;48.506;9.050;2023-02-26T02:57:03;2.40;;;1.23;;
13487;SDS011;6816;48.506;9.050;2023-02-26T03:00:11;1.37;;;1.03;;
13487;SDS011;6816;48.506;9.050;2023-02-26T03:03:19;2.63;;;1.33;;
13487;SDS011;6816;48.506;9.050;2023-02-26T03:06:47;3.47;;;1.43;;
13487;SDS011;6816;48.506;9.050;2023-02-26T03:09:49;3.23;;;1.73;;
13487;SDS011;6816;48.506;9.050;2023-02-26T03:12:49;2.03;;;1.07;;
13487;SDS011;6816;48.506;9.050;2023-02-26T03:16:05;3.33;;;1.30;;
13487;SDS011;6816;48.506;9.050;2023-02-26T03:19:34;3.93;;;1.57;;
13487;SDS011;6816;48.506;9.050;2023-02-26T03:45:21;5.00;;;1.70;;
13487;SDS011;6816;48.506;9.050;2023-02-26T03:48:26;3.33;;;1.43;;
13487;SDS011;6816;48.506;9.050;2023-02-26T03:51:29;1.93;;;0.90;;
13487;SDS011;6816;48.506;9.050;2023-02-26T03:54:31;3.07;;;1.20;;
13487;SDS011;6816;48.506;9.050;2023-02-26T03:57:37;1.67;;;1.10;;
13487;SDS011;6816;48.506;9.050;2023-02-26T04:00:39;3.40;;;1.27;;
13487;SDS011;6816;48.506;9.050;2023-02-26T04:06:49;1.83;;;1.10;;
13487;SDS011;6816;48.506;9.050;2023-02-26T04:09:52;2.27;;;1.00;;
13487;SDS011;6816;48.506;9.050;2023-02-26T04:12:53;2.47;;;1.20;;
13487;SDS011;6816;48.506;9.050;2023-02-26T04:15:57;3.17;;;1.77;;
13487;SDS011;6816;48.506;9.050;2023-02-26T04:18:58;1.83;;;1.20;;
13487;SDS011;6816;48.506;9.050;2023-02-26T04:21:58;3.50;;;1.20;;
13487;SDS011;6816;48.506;9.050;2023-02-26T04:24:59;2.27;;;1.20;;
13487;SDS011;6816;48.506;9.050;2023-02-26T04:27:59;1.40;;;1.03;;
13487;SDS011;6816;48.506;9.050;2023-02-26T04:31:00;2.80;;;1.60;;
13487;SDS011;6816;48.506;9.050;2023-02-26T04:34:01;2.60;;;1.33;;
13487;SDS011;6816;48.506;9.050;2023-02-26T04:37:01;1.57;;;1.10;;
13487;SDS011;6816;48.506;9.050;2023-02-26T04:40:02;2.23;;;1.27;;
13487;SDS011;6816;48.506;9.050;2023-02-26T04:43:03;1.70;;;0.93;;
13487;SDS011;6816;48.506;9.050;2023-02-26T04:46:04;3.07;;;1.20;;
13487;SDS011;6816;48.506;9.050;2023-02-26T04:49:05;2.57;;;1.30;;
13487;SDS011;6816;48.506;9.050;2023-02-26T04:52:05;3.60;;;1.23;;
13487;SDS011;6816;48.506;9.050;2023-02-26T04:55:06;2.50;;;1.43;;
13487;SDS011;6816;48.506;9.050;2023-02-26T04:58:07;2.60;;;1.13;;
13487;SDS011;6816;48.506;9.050;2023-02-26T05:01:08;3.07;;;1.10;;
13487;SDS011;6816;48.506;9.050;2023-02-26T05:04:08;2.23;;;1.13;;
13487;SDS011;6816;48.506;9.050;2023-02-26T05:07:09;1.73;;;1.23;;
13487;SDS011;6816;48.506;9.050;2023-02-26T05:10:10;3.53;;;1.23;;
13487;SDS011;6816;48.506;9.050;2023-02-26T05:13:11;2.10;;;1.33;;
13487;SDS011;6816;48.506;9.050;2023-02-26T05:16:12;1.83;;;1.17;;
13487;SDS011;6816;48.506;9.050;2023-02-26T05:19:13;2.80;;;1.53;;
13487;SDS011;6816;48.506;9.050;2023-02-26T05:22:14;3.70;;;1.40;;
13487;SDS011;6816;48.506;9.050;2023-02-26T05:25:14;2.73;;;1.40;;
13487;SDS011;6816;48.506;9.050;2023-02-26T05:28:15;2.73;;;1.33;;
13487;SDS011;6816;48.506;9.050;2023-02-26T05:31:16;2.00;;;1.23;;
13487;SDS011;6816;48.506;9.050;2023-02-26T05:34:17;3.47;;;1.30;;
13487;SDS011;6816;48.506;9.050;2023-02-26T05:37:17;1.97;;;1.30;;
13487;SDS011;6816;48.506;9.050;2023-02-26T05:40:18;2.90;;;1.03;;
13487;SDS011;6816;48.506;9.050;2023-02-26T05:43:18;3.33;;;1.23;;
13487;SDS011;6816;48.506;9.050;2023-02-26T05:46:19;2.40;;;1.20;;
13487;SDS011;6816;48.506;9.050;2023-02-26T05:49:20;2.63;;;1.20;;
13487;SDS011;6816;48.506;9.050;2023-02-26T05:52:20;2.77;;;1.57;;
13487;SDS011;6816;48.506;9.050;2023-02-26T05:55:21;3.80;;;1.47;;
13487;SDS011;6816;48.506;9.050;2023-02-26T05:58:22;1.90;;;1.37;;
13487;SDS011;6816;48.506;9.050;2023-02-26T06:01:23;2.40;;;1.20;;
13487;SDS011;6816;48.506;9.050;2023-02-26T06:04:23;4.03;;;1.50;;
13487;SDS011;6816;48.506;9.050;2023-02-26T06:07:24;2.23;;;1.23;;
13487;SDS011;6816;48.506;9.050;2023-02-26T06:10:24;1.97;;;1.30;;
13487;SDS011;6816;48.506;9.050;2023-02-26T06:13:25;2.53;;;1.50;;
13487;SDS011;6816;48.506;9.050;2023-02-26T06:16:26;2.57;;;1.20;;
13487;SDS011;6816;48.506;9.050;2023-02-26T06:19:27;2.33;;;1.40;;
13487;SDS011;6816;48.506;9.050;2023-02-26T06:22:28;2.47;;;1.40;;
13487;SDS011;6816;48.506;9.050;2023-02-26T06:25:29;1.80;;;1.23;;
13487;SDS011;6816;48.506;9.050;2023-02-26T06:28:29;3.00;;;1.80;;
13487;SDS011;6816;48.506;9.050;2023-02-26T06:31:30;1.60;;;1.03;;
13487;SDS011;6816;48.506;9.050;2023-02-26T06:34:31;1.73;;;1.40;;
13487;SDS011;6816;48.506;9.050;2023-02-26T06:37:32;5.23;;;1.57;;
13487;SDS011;6816;48.506;9.050;2023-02-26T06:40:33;1.70;;;1.37;;
13487;SDS011;6816;48.506;9.050;2023-02-26T06:43:33;2.07;;;1.30;;
13487;SDS011;6816;48.506;9.050;2023-02-26T06:46:34;4.07;;;1.33;;
13487;SDS011;6816;48.506;9.050;2023-02-26T06:49:35;2.80;;;1.60;;
13487;SDS011;6816;48.506;9.050;2023-02-26T06:52:35;2.33;;;1.20;;
13487;SDS011;6816;48.506;9.050;2023-02-26T06:55:40;3.13;;;1.70;;
13487;SDS011;6816;48.506;9.050;2023-02-26T06:58:43;1.77;;;1.30;;
13487;SDS011;6816;48.506;9.050;2023-02-26T07:01:44;4.67;;;1.30;;
13487;SDS011;6816;48.506;9.050;2023-02-26T07:04:44;2.10;;;1.50;;
13487;SDS011;6816;48.506;9.050;2023-02-26T07:07:45;2.87;;;1.50;;
13487;SDS011;6816;48.506;9.050;2023-02-26T07:10:46;1.83;;;1.30;;
13487;SDS011;6816;48.506;9.050;2023-02-26T07:13:48;2.90;;;1.30;;
13487;SDS011;6816;48.506;9.050;2023-02-26T07:16:50;3.40;;;1.60;;
13487;SDS011;6816;48.506;9.050;2023-02-26T07:19:51;2.33;;;1.33;;
13487;SDS011;6816;48.506;9.050;2023-02-26T07:22:52;2.10;;;1.30;;
13487;SDS011;6816;48.506;9.050;2023-02-26T07:25:53;1.80;;;1.23;;
13487;SDS011;6816;48.506;9.050;2023-02-26T07:28:53;2.40;;;1.40;;
13487;SDS011;6816;48.506;9.050;2023-02-26T07:31:54;4.50;;;1.63;;
13487;SDS011;6816;48.506;9.050;2023-02-26T07:34:55;3.93;;;1.40;;
13487;SDS011;6816;48.506;9.050;2023-02-26T07:37:55;2.63;;;1.47;;
13487;SDS011;6816;48.506;9.050;2023-02-26T07:40:56;3.87;;;1.40;;
13487;SDS011;6816;48.506;9.050;2023-02-26T07:43:56;3.00;;;1.23;;
13487;SDS011;6816;48.506;9.050;2023-02-26T07:46:57;2.70;;;1.77;;
13487;SDS011;6816;48.506;9.050;2023-02-26T07:49:59;2.10;;;1.40;;
13487;SDS011;6816;48.506;9.050;2023-02-26T07:52:59;2.50;;;1.33;;
13487;SDS011;6816;48.506;9.050;2023-02-26T07:56:00;3.03;;;1.33;;
13487;SDS011;6816;48.506;9.050;2023-02-26T07:59:01;4.00;;;1.60;;
13487;SDS011;6816;48.506;9.050;2023-02-26T08:02:01;2.80;;;1.27;;
13487;SDS011;6816;48.506;9.050;2023-02-26T08:05:02;2.33;;;1.40;;
13487;SDS011;6816;48.506;9.050;2023-02-26T08:08:03;4.30;;;1.37;;
13487;SDS011;6816;48.506;9.050;2023-02-26T08:11:04;1.57;;;1.07;;
13487;SDS011;6816;48.506;9.050;2023-02-26T08:14:05;3.73;;;1.50;;
13487;SDS011;6816;48.506;9.050;2023-02-26T08:17:07;3.00;;;1.23;;
13487;SDS011;6816;48.506;9.050;2023-02-26T08:20:08;2.33;;;1.27;;
13487;SDS011;6816;48.506;9.050;2023-02-26T08:23:09;2.60;;;1.30;;
13487;SDS011;6816;48.506;9.050;2023-02-26T08:26:10;1.57;;;1.20;;
13487;SDS011;6816;48.506;9.050;2023-02-26T08:29:12;3.47;;;1.60;;
13487;SDS011;6816;48.506;9.050;2023-02-26T08:32:13;1.77;;;1.20;;
13487;SDS011;6816;48.506;9.050;2023-02-26T08:35:14;2.13;;;1.07;;
13487;SDS011;6816;48.506;9.050;2023-02-26T08:38:15;1.63;;;0.90;;
13487;SDS011;6816;48.506;9.050;2023-02-26T08:41:16;2.30;;;1.30;;
13487;SDS011;6816;48.506;9.050;2023-02-26T08:44:16;4.07;;;1.43;;
13487;SDS011;6816;48.506;9.050;2023-02-26T08:47:17;1.40;;;1.30;;
13487;SDS011;6816;48.506;9.050;2023-02-26T08:50:18;2.97;;;1.30;;
13487;SDS011;6816;48.506;9.050;2023-02-26T08:53:18;1.40;;;1.30;;
13487;SDS011;6816;48.506;9.050;2023-02-26T08:56:19;2.53;;;1.33;;
13487;SDS011;6816;48.506;9.050;2023-02-26T08:59:20;2.63;;;1.27;;
13487;SDS011;6816;48.506;9.050;2023-02-26T09:02:21;2.53;;;1.50;;
13487;SDS011;6816;48.506;9.050;2023-02-26T09:05:21;1.47;;;1.20;;
13487;SDS011;6816;48.506;9.050;2023-02-26T09:08:22;2.40;;;1.50;;
13487;SDS011;6816;48.506;9.050;2023-02-26T09:11:23;2.00;;;1.13;;
13487;SDS011;6816;48.506;9.050;2023-02-26T09:14:24;3.90;;;1.70;;
13487;SDS011;6816;48.506;9.050;2023-02-26T09:17:25;3.90;;;1.50;;
13487;SDS011;6816;48.506;9.050;2023-02-26T09:20:25;2.50;;;1.20;;
13487;SDS011;6816;48.506;9.050;2023-02-26T09:23:26;1.70;;;1.30;;
13487;SDS011;6816;48.506;9.050;2023-02-26T09:26:27;2.97;;;1.47;;
13487;SDS011;6816;48.506;9.050;2023-02-26T09:29:28;2.23;;;1.40;;
13487;SDS011;6816;48.506;9.050;2023-02-26T09:32:28;1.93;;;1.20;;
13487;SDS011;6816;48.506;9.050;2023-02-26T09:35:29;1.70;;;1.40;;
13487;SDS011;6816;48.506;9.050;2023-02-26T09:38:29;1.93;;;1.40;;
13487;SDS011;6816;48.506;9.050;2023-02-26T09:41:31;1.27;;;1.13;;
13487;SDS011;6816;48.506;9.050;2023-02-26T09:44:37;2.13;;;1.47;;
13487;SDS011;6816;48.506;9.050;2023-02-26T09:47:39;2.43;;;1.27;;
13487;SDS011;6816;48.506;9.050;2023-02-26T09:50:46;3.50;;;1.33;;
13487;SDS011;6816;48.506;9.050;2023-02-26T09:53:50;3.23;;;1.10;;
13487;SDS011;6816;48.506;9.050;2023-02-26T09:56:52;2.50;;;1.20;;
13487;SDS011;6816;48.506;9.050;2023-02-26T09:59:54;2.30;;;1.10;;
13487;SDS011;6816;48.506;9.050;2023-02-26T10:06:20;1.40;;;1.17;;
13487;SDS011;6816;48.506;9.050;2023-02-26T10:12:39;2.30;;;1.40;;
13487;SDS011;6816;48.506;9.050;2023-02-26T10:15:42;2.53;;;1.60;;
13487;SDS011;6816;48.506;9.050;2023-02-26T10:18:45;3.63;;;1.27;;
13487;SDS011;6816;48.506;9.050;2023-02-26T10:21:54;1.63;;;1.10;;
13487;SDS011;6816;48.506;9.050;2023-02-26T10:25:03;1.90;;;1.30;;
13487;SDS011;6816;48.506;9.050;2023-02-26T10:35:15;2.53;;;1.20;;
13487;SDS011;6816;48.506;9.050;2023-02-26T10:38:18;2.40;;;0.90;;
13487;SDS011;6816;48.506;9.050;2023-02-26T10:41:24;3.33;;;1.20;;
13487;SDS011;6816;48.506;9.050;2023-02-26T10:44:29;1.43;;;1.07;;
13487;SDS011;6816;48.506;9.050;2023-02-26T10:51:13;1.70;;;1.20;;
13487;SDS011;6816;48.506;9.050;2023-02-26T10:57:37;1.67;;;1.40;;
13487;SDS011;6816;48.506;9.050;2023-02-26T11:00:47;1.40;;;1.30;;
13487;SDS011;6816;48.506;9.050;2023-02-26T11:03:50;2.33;;;1.40;;
13487;SDS011;6816;48.506;9.050;2023-02-26T11:07:04;1.63;;;1.43;;
13487;SDS011;6816;48.506;9.050;2023-02-26T11:10:11;1.53;;;1.27;;
13487;SDS011;6816;48.506;9.050;2023-02-26T11:13:14;1.67;;;1.20;;
13487;SDS011;6816;48.506;9.050;2023-02-26T11:16:15;3.33;;;1.30;;
13487;SDS011;6816;48.506;9.050;2023-02-26T11:19:19;2.37;;;1.20;;
13487;SDS011;6816;48.506;9.050;2023-02-26T11:22:31;1.77;;;1.20;;
13487;SDS011;6816;48.506;9.050;2023-02-26T11:25:35;1.20;;;1.10;;
13487;SDS011;6816;48.506;9.050;2023-02-26T11:28:41;1.40;;;1.10;;
13487;SDS011;6816;48.506;9.050;2023-02-26T11:31:47;3.70;;;2.60;;
13487;SDS011;6816;48.506;9.050;2023-02-26T11:34:50;2.50;;;1.70;;
13487;SDS011;6816;48.506;9.050;2023-02-26T11:37:58;1.63;;;1.30;;
13487;SDS011;6816;48.506;9.050;2023-02-26T11:41:00;2.17;;;1.30;;
13487;SDS011;6816;48.506;9.050;2023-02-26T11:44:11;2.37;;;1.20;;
13487;SDS011;6816;48.506;9.050;2023-02-26T11:47:25;1.50;;;1.07;;
13487;SDS011;6816;48.506;9.050;2023-02-26T11:50:28;1.13;;;0.97;;
13487;SDS011;6816;48.506;9.050;2023-02-26T11:53:34;1.50;;;1.00;;
13487;SDS011;6816;48.506;9.050;2023-02-26T11:56:37;1.40;;;0.90;;
13487;SDS011;6816;48.506;9.050;2023-02-26T11:59:40;1.50;;;1.27;;
13487;SDS011;6816;48.506;9.050;2023-02-26T12:02:47;1.67;;;1.00;;
13487;SDS011;6816;48.506;9.050;2023-02-26T12:05:48;2.03;;;1.00;;
13487;SDS011;6816;48.506;9.050;2023-02-26T12:08:55;0.80;;;0.80;;
13487;SDS011;6816;48.506;9.050;2023-02-26T12:12:32;1.27;;;0.90;;
13487;SDS011;6816;48.506;9.050;2023-02-26T12:22:36;1.10;;;1.00;;
13487;SDS011;6816;48.506;9.050;2023-02-26T12:25:56;1.27;;;1.00;;
13487;SDS011;6816;48.506;9.050;2023-02-26T12:32:32;1.40;;;1.30;;
13487;SDS011;6816;48.506;9.050;2023-02-26T12:35:42;1.00;;;0.90;;
13487;SDS011;6816;48.506;9.050;2023-02-26T12:49:00;2.10;;;1.40;;
13487;SDS011;6816;48.506;9.050;2023-02-26T12:52:28;1.73;;;1.13;;
13487;SDS011;6816;48.506;9.050;2023-02-26T13:09:55;1.27;;;0.83;;
13487;SDS011;6816;48.506;9.050;2023-02-26T13:20:12;2.40;;;1.23;;
13487;SDS011;6816;48.506;9.050;2023-02-26T13:23:19;1.60;;;1.07;;
13487;SDS011;6816;48.506;9.050;2023-02-26T13:26:22;1.80;;;1.40;;
13487;SDS011;6816;48.506;9.050;2023-02-26T13:29:33;4.50;;;1.50;;
13487;SDS011;6816;48.506;9.050;2023-02-26T13:32:39;2.27;;;1.80;;
13487;SDS011;6816;48.506;9.050;2023-02-26T13:35:41;1.80;;;1.30;;
13487;SDS011;6816;48.506;9.050;2023-02-26T13:38:48;1.63;;;1.17;;
13487;SDS011;6816;48.506;9.050;2023-02-26T13:49:13;2.07;;;1.30;;
13487;SDS011;6816;48.506;9.050;2023-02-26T13:52:26;1.40;;;1.30;;
13487;SDS011;6816;48.506;9.050;2023-02-26T13:55:42;1.27;;;0.90;;
13487;SDS011;6816;48.506;9.050;2023-02-26T13:58:52;1.73;;;1.00;;
13487;SDS011;6816;48.506;9.050;2023-02-26T14:02:00;1.13;;;0.87;;
13487;SDS011;6816;48.506;9.050;2023-02-26T14:05:06;1.23;;;0.97;;
13487;SDS011;6816;48.506;9.050;2023-02-26T14:11:42;1.30;;;1.20;;
13487;SDS011;6816;48.506;9.050;2023-02-26T14:15:16;1.07;;;0.97;;
13487;SDS011;6816;48.506;9.050;2023-02-26T14:22:00;1.20;;;0.70;;
13487;SDS011;6816;48.506;9.050;2023-02-26T14:28:33;0.83;;;0.70;;
13487;SDS011;6816;48.506;9.050;2023-02-26T14:35:05;1.10;;;0.70;;
13487;SDS011;6816;48.506;9.050;2023-02-26T14:38:17;1.10;;;1.00;;
13487;SDS011;6816;48.506;9.050;2023-02-26T14:41:27;1.00;;;0.60;;
13487;SDS011;6816;48.506;9.050;2023-02-26T14:44:36;1.07;;;0.97;;
13487;SDS011;6816;48.506;9.050;2023-02-26T14:47:40;1.97;;;0.90;;
13487;SDS011;6816;48.506;9.050;2023-02-26T14:50:49;0.60;;;0.60;;
13487;SDS011;6816;48.506;9.050;2023-02-26T15:24:18;0.90;;;0.70;;
13487;SDS011;6816;48.506;9.050;2023-02-26T15:27:19;0.70;;;0.40;;
13487;SDS011;6816;48.506;9.050;2023-02-26T15:30:21;1.50;;;1.03;;
13487;SDS011;6816;48.506;9.050;2023-02-26T15:33:23;2.20;;;1.00;;
13487;SDS011;6816;48.506;9.050;2023-02-26T15:36:24;0.77;;;0.77;;
13487;SDS011;6816;48.506;9.050;2023-02-26T15:39:28;0.90;;;0.67;;
13487;SDS011;6816;48.506;9.050;2023-02-26T15:42:30;1.17;;;0.57;;
13487;SDS011;6816;48.506;9.050;2023-02-26T15:45:39;1.07;;;0.97;;
13487;SDS011;6816;48.506;9.050;2023-02-26T15:48:41;1.77;;;0.80;;
13487;SDS011;6816;48.506;9.050;2023-02-26T15:51:43;0.83;;;0.53;;
13487;SDS011;6816;48.506;9.050;2023-02-26T15:54:47;0.80;;;0.67;;
13487;SDS011;6816;48.506;9.050;2023-02-26T15:57:51;1.07;;;0.70;;
13487;SDS011;6816;48.506;9.050;2023-02-26T16:00:53;0.67;;;0.67;;
13487;SDS011;6816;48.506;9.050;2023-02-26T16:03:59;2.10;;;0.70;;
13487;SDS011;6816;48.506;9.050;2023-02-26T16:07:01;2.90;;;1.50;;
13487;SDS011;6816;48.506;9.050;2023-02-26T16:10:04;1.90;;;1.07;;
13487;SDS011;6816;48.506;9.050;2023-02-26T16:13:14;1.30;;;1.00;;
13487;SDS011;6816;48.506;9.050;2023-02-26T16:16:26;1.47;;;0.93;;
13487;SDS011;6816;48.506;9.050;2023-02-26T16:19:33;1.10;;;0.70;;
13487;SDS011;6816;48.506;9.050;2023-02-26T16:22:45;1.00;;;0.80;;
13487;SDS011;6816;48.506;9.050;2023-02-26T16:28:57;0.83;;;0.83;;
13487;SDS011;6816;48.506;9.050;2023-02-26T16:32:09;2.43;;;1.07;;
13487;SDS011;6816;48.506;9.050;2023-02-26T16:35:16;1.33;;;1.17;;
13487;SDS011;6816;48.506;9.050;2023-02-26T16:38:31;2.07;;;1.00;;
13487;SDS011;6816;48.506;9.050;2023-02-26T16:41:45;1.27;;;1.17;;
13487;SDS011;6816;48.506;9.050;2023-02-26T16:44:49;1.50;;;1.03;;
13487;SDS011;6816;48.506;9.050;2023-02-26T16:47:56;1.23;;;1.00;;
13487;SDS011;6816;48.506;9.050;2023-02-26T16:51:03;1.47;;;0.90;;
13487;SDS011;6816;48.506;9.050;2023-02-26T16:57:20;1.63;;;1.10;;
13487;SDS011;6816;48.506;9.050;2023-02-26T17:00:24;1.23;;;1.00;;
13487;SDS011;6816;48.506;9.050;2023-02-26T17:03:31;1.87;;;1.10;;
13487;SDS011;6816;48.506;9.050;2023-02-26T17:06:34;1.10;;;1.00;;
13487;SDS011;6816;48.506;9.050;2023-02-26T17:09:39;2.13;;;1.20;;
13487;SDS011;6816;48.506;9.050;2023-02-26T17:12:45;1.20;;;0.97;;
13487;SDS011;6816;48.506;9.050;2023-02-26T17:15:48;1.70;;;1.00;;
13487;SDS011;6816;48.506;9.050;2023-02-26T17:18:50;2.17;;;1.10;;
13487;SDS011;6816;48.506;9.050;2023-02-26T17:21:54;1.33;;;1.07;;
13487;SDS011;6816;48.506;9.050;2023-02-26T17:24:57;1.10;;;0.83;;
13487;SDS011;6816;48.506;9.050;2023-02-26T17:27:58;0.80;;;0.57;;
13487;SDS011;6816;48.506;9.050;2023-02-26T17:30:59;2.20;;;0.97;;
13487;SDS011;6816;48.506;9.050;2023-02-26T17:34:00;1.27;;;0.90;;
13487;SDS011;6816;48.506;9.050;2023-02-26T17:37:01;0.97;;;0.70;;
13487;SDS011;6816;48.506;9.050;2023-02-26T17:40:13;0.90;;;0.70;;
13487;SDS011;6816;48.506;9.050;2023-02-26T17:43:18;0.80;;;0.67;;
13487;SDS011;6816;48.506;9.050;2023-02-26T17:46:19;2.17;;;0.97;;
13487;SDS011;6816;48.506;9.050;2023-02-26T17:49:19;2.57;;;0.50;;
13487;SDS011;6816;48.506;9.050;2023-02-26T17:52:20;0.77;;;0.67;;
13487;SDS011;6816;48.506;9.050;2023-02-26T17:55:20;1.87;;;0.97;;
13487;SDS011;6816;48.506;9.050;2023-02-26T17:58:24;2.07;;;0.80;;
13487;SDS011;6816;48.506;9.050;2023-02-26T18:01:27;1.03;;;0.70;;
13487;SDS011;6816;48.506;9.050;2023-02-26T18:04:28;1.17;;;0.60;;
13487;SDS011;6816;48.506;9.050;2023-02-26T18:07:32;1.30;;;0.77;;
13487;SDS011;6816;48.506;9.050;2023-02-26T18:10:36;1.63;;;1.00;;
13487;SDS011;6816;48.506;9.050;2023-02-26T18:13:36;1.97;;;0.87;;
13487;SDS011;6816;48.506;9.050;2023-02-26T18:16:38;1.13;;;0.70;;
13487;SDS011;6816;48.506;9.050;2023-02-26T18:19:41;0.80;;;0.80;;
13487;SDS011;6816;48.506;9.050;2023-02-26T18:22:42;1.23;;;0.97;;
13487;SDS011;6816;48.506;9.050;2023-02-26T18:25:46;1.70;;;0.80;;
13487;SDS011;6816;48.506;9.050;2023-02-26T18:28:48;1.17;;;0.70;;
13487;SDS011;6816;48.506;9.050;2023-02-26T18:31:50;1.33;;;0.93;;
13487;SDS011;6816;48.506;9.050;2023-02-26T18:34:51;1.43;;;0.70;;
13487;SDS011;6816;48.506;9.050;2023-02-26T18:37:52;0.80;;;0.70;;
13487;SDS011;6816;48.506;9.050;2023-02-26T18:40:53;1.37;;;0.90;;
13487;SDS011;6816;48.506;9.050;2023-02-26T18:43:55;1.20;;;0.87;;
13487;SDS011;6816;48.506;9.050;2023-02-26T18:46:55;1.07;;;0.90;;
13487;SDS011;6816;48.506;9.050;2023-02-26T18:49:56;1.53;;;0.80;;
13487;SDS011;6816;48.506;9.050;2023-02-26T18:52:57;1.13;;;0.90;;
13487;SDS011;6816;48.506;9.050;2023-02-26T18:55:57;2.60;;;1.10;;
13487;SDS011;6816;48.506;9.050;2023-02-26T18:58:58;1.07;;;0.80;;
13487;SDS011;6816;48.506;9.050;2023-02-26T19:01:59;1.70;;;0.97;;
13487;SDS011;6816;48.506;9.050;2023-02-26T19:05:01;1.37;;;0.70;;
13487;SDS011;6816;48.506;9.050;2023-02-26T19:08:02;0.83;;;0.70;;
13487;SDS011;6816;48.506;9.050;2023-02-26T19:11:04;1.47;;;0.80;;
13487;SDS011;6816;48.506;9.050;2023-02-26T19:14:04;1.70;;;0.73;;
13487;SDS011;6816;48.506;9.050;2023-02-26T19:17:05;0.77;;;0.60;;
13487;SDS011;6816;48.506;9.050;2023-02-26T19:20:06;1.57;;;0.50;;
13487;SDS011;6816;48.506;9.050;2023-02-26T19:23:07;2.00;;;0.60;;
13487;SDS011;6816;48.506;9.050;2023-02-26T19:26:08;0.90;;;0.60;;
13487;SDS011;6816;48.506;9.050;2023-02-26T19:29:10;1.13;;;0.60;;
13487;SDS011;6816;48.506;9.050;2023-02-26T19:32:16;1.37;;;0.83;;
13487;SDS011;6816;48.506;9.050;2023-02-26T19:35:16;1.47;;;1.00;;
13487;SDS011;6816;48.506;9.050;2023-02-26T19:38:18;2.13;;;0.90;;
13487;SDS011;6816;48.506;9.050;2023-02-26T19:41:19;1.17;;;0.90;;
13487;SDS011;6816;48.506;9.050;2023-02-26T19:44:20;0.97;;;0.63;;
13487;SDS011;6816;48.506;9.050;2023-02-26T19:47:21;1.43;;;0.60;;
13487;SDS011;6816;48.506;9.050;2023-02-26T19:50:22;1.00;;;0.70;;
13487;SDS011;6816;48.506;9.050;2023-02-26T19:53:24;1.10;;;0.70;;
13487;SDS011;6816;48.506;9.050;2023-02-26T19:56:25;1.93;;;0.73;;
13487;SDS011;6816;48.506;9.050;2023-02-26T19:59:26;0.77;;;0.50;;
13487;SDS011;6816;48.506;9.050;2023-02-26T20:02:27;2.43;;;0.80;;
13487;SDS011;6816;48.506;9.050;2023-02-26T20:05:27;2.07;;;0.90;;
13487;SDS011;6816;48.506;9.050;2023-02-26T20:08:30;2.63;;;1.00;;
13487;SDS011;6816;48.506;9.050;2023-02-26T20:11:31;1.23;;;0.80;;
13487;SDS011;6816;48.506;9.050;2023-02-26T20:14:32;1.00;;;0.60;;
13487;SDS011;6816;48.506;9.050;2023-02-26T20:17:33;0.90;;;0.60;;
13487;SDS011;6816;48.506;9.050;2023-02-26T20:20:34;2.63;;;0.90;;
13487;SDS011;6816;48.506;9.050;2023-02-26T20:23:36;0.60;;;0.50;;
13487;SDS011;6816;48.506;9.050;2023-02-26T20:26:37;0.97;;;0.60;;
13487;SDS011;6816;48.506;9.050;2023-02-26T20:29:38;1.43;;;0.70;;
13487;SDS011;6816;48.506;9.050;2023-02-26T20:32:38;1.00;;;0.50;;
13487;SDS011;6816;48.506;9.050;2023-02-26T20:35:43;1.10;;;0.60;;
13487;SDS011;6816;48.506;9.050;2023-02-26T20:38:44;1.70;;;0.67;;
13487;SDS011;6816;48.506;9.050;2023-02-26T20:41:45;0.93;;;0.57;;
13487;SDS011;6816;48.506;9.050;2023-02-26T20:44:46;2.23;;;1.10;;
13487;SDS011;6816;48.506;9.050;2023-02-26T20:47:47;0.90;;;0.57;;
13487;SDS011;6816;48.506;9.050;2023-02-26T20:50:50;1.47;;;0.70;;
13487;SDS011;6816;48.506;9.050;2023-02-26T20:53:54;1.17;;;0.57;;
13487;SDS011;6816;48.506;9.050;2023-02-26T20:56:55;1.93;;;0.60;;
13487;SDS011;6816;48.506;9.050;2023-02-26T20:59:58;1.17;;;0.77;;
13487;SDS011;6816;48.506;9.050;2023-02-26T21:02:59;1.20;;;0.63;;
13487;SDS011;6816;48.506;9.050;2023-02-26T21:06:03;1.40;;;0.80;;
13487;SDS011;6816;48.506;9.050;2023-02-26T21:09:07;1.90;;;1.10;;
13487;SDS011;6816;48.506;9.050;2023-02-26T21:12:10;0.67;;;0.60;;
13487;SDS011;6816;48.506;9.050;2023-02-26T21:15:16;1.50;;;0.80;;
13487;SDS011;6816;48.506;9.050;2023-02-26T21:18:18;1.33;;;1.00;;
13487;SDS011;6816;48.506;9.050;2023-02-26T21:21:25;4.13;;;2.30;;
13487;SDS011;6816;48.506;9.050;2023-02-26T21:24:49;4.03;;;1.47;;
13487;SDS011;6816;48.506;9.050;2023-02-26T21:27:56;1.33;;;0.93;;
13487;SDS011;6816;48.506;9.050;2023-02-26T21:30:57;1.87;;;1.10;;
13487;SDS011;6816;48.506;9.050;2023-02-26T21:33:57;1.90;;;1.00;;
13487;SDS011;6816;48.506;9.050;2023-02-26T21:36:58;1.17;;;0.80;;
13487;SDS011;6816;48.506;9.050;2023-02-26T21:39:59;0.80;;;0.67;;
13487;SDS011;6816;48.506;9.050;2023-02-26T21:43:03;3.00;;;0.73;;